Terminal Aerodrome Forecast
Issued by NWS Cleveland, OH

Home | Current Version | Previous Version | Graphics & Text | Print | Product List | Glossary Off
Versions: 1 2 3 4 5 6 7 8 9 10 11 12 13 14 15 16 17 18 19

000
FTUS41 KCLE 251900 AAA
TAFERI
TAF AMD
KERI 251901Z 2519/2618 26010G20KT P6SM SCT020 OVC035
      TEMPO 2519/2520 OVC020
     FM252000 28010G20KT P6SM SKC
     FM261200 28010G20KT P6SM OVC035=

USA.gov is the U.S. government's official web portal to all federal, state and local government web resources and services.